Time;durP1;ratioP1;P1;durP2;ratioP2;P2;SDS_P1;SDS_P2;PMS_P1;PMS_P2;Temp;Humidity;BMP_temperature;BMP_pressure;BME280_temperature;BME280_humidity;BME280_pressure;Samples;Min_cycle;Max_cycle;Signal;HPM_P1;HPM_P2
2022/07/26 00:00:47;;;;;;;6.80;2.60;;;;;;;21.54;55.06;99651.64;1763956;81;21198;-77
2022/07/26 00:03:14;;;;;;;5.72;2.27;;;;;;;21.56;55.34;99646.14;1760067;81;21059;-77
2022/07/26 00:05:42;;;;;;;4.97;2.30;;;;;;;21.57;55.64;99641.17;1758995;81;21050;-78
2022/07/26 00:08:12;;;;;;;3.98;2.55;;;;;;;21.55;55.65;99643.97;1783587;80;21003;-78
2022/07/26 00:10:47;;;;;;;7.10;2.02;;;;;;;21.53;55.94;99636.63;1738935;81;21074;-78
2022/07/26 00:13:17;;;;;;;5.35;2.37;;;;;;;21.55;55.91;99629.80;1769926;80;21117;-78
2022/07/26 00:15:46;;;;;;;4.20;2.30;;;;;;;21.55;55.52;99627.14;1746060;81;21032;-78
2022/07/26 00:18:14;;;;;;;5.08;2.30;;;;;;;21.56;55.56;99630.14;1731959;81;21689;-77
2022/07/26 00:20:41;;;;;;;8.55;2.52;;;;;;;21.56;55.68;99620.34;1756092;81;21047;-78
2022/07/26 00:23:09;;;;;;;4.20;2.25;;;;;;;21.58;55.92;99613.01;1773439;80;21011;-78
2022/07/26 00:25:37;;;;;;;6.15;2.30;;;;;;;21.59;56.13;99609.88;1746966;81;21493;-78
2022/07/26 00:28:05;;;;;;;5.00;2.08;;;;;;;21.56;56.08;99620.34;1786991;80;20979;-77
2022/07/26 00:30:33;;;;;;;8.15;2.60;;;;;;;21.53;55.74;99628.64;1769390;80;21102;-77
2022/07/26 00:33:00;;;;;;;5.30;2.30;;;;;;;21.55;55.44;99616.47;1761936;81;21047;-78
2022/07/26 00:35:27;;;;;;;3.17;2.10;;;;;;;21.59;54.97;99592.05;1762348;81;21102;-78
2022/07/26 00:37:54;;;;;;;5.53;2.30;;;;;;;21.63;54.87;99590.41;1759182;81;21075;-77
2022/07/26 00:40:21;;;;;;;4.75;2.30;;;;;;;21.64;54.62;99590.75;1750051;81;21066;-77
2022/07/26 00:42:48;;;;;;;5.28;2.77;;;;;;;21.65;54.30;99587.95;1762451;81;21466;-77
2022/07/26 00:45:16;;;;;;;6.08;2.40;;;;;;;21.69;53.88;99592.48;1762355;81;21035;-78
2022/07/26 00:47:44;;;;;;;11.57;2.70;;;;;;;21.74;53.58;99586.22;1762558;81;21572;-78
2022/07/26 00:50:15;;;;;;;5.70;2.50;;;;;;;21.79;53.36;99599.95;1762336;81;21933;-78
2022/07/26 00:52:45;;;;;;;4.22;2.35;;;;;;;21.84;53.05;99613.69;1762511;81;20988;-77
2022/07/26 00:55:14;;;;;;;7.00;2.40;;;;;;;21.88;52.65;99632.40;1758924;80;21077;-77
2022/07/26 00:57:43;;;;;;;7.43;2.70;;;;;;;21.93;52.33;99669.31;1754521;81;21067;-77
2022/07/26 01:00:17;;;;;;;10.68;3.10;;;;;;;21.97;51.75;99677.36;1750138;81;21087;-79
2022/07/26 01:02:44;;;;;;;14.28;3.80;;;;;;;22.10;51.73;99691.20;1762662;81;21510;-82
2022/07/26 01:05:11;;;;;;;8.68;3.33;;;;;;;21.80;52.43;99669.14;1740848;81;21626;-80
2022/07/26 01:07:40;;;;;;;10.48;3.98;;;;;;;21.06;53.58;99652.56;1761036;80;21063;-77
2022/07/26 01:10:13;;;;;;;14.95;3.75;;;;;;;20.39;55.34;99656.02;1764654;79;21491;-81
2022/07/26 01:12:42;;;;;;;10.70;4.40;;;;;;;19.81;57.62;99657.56;1740993;81;21051;-79
2022/07/26 01:15:12;;;;;;;10.15;4.40;;;;;;;19.43;60.09;99667.48;1761223;80;21564;-78
2022/07/26 01:17:40;;;;;;;15.58;4.92;;;;;;;19.17;61.38;99698.91;1761142;80;21023;-78
2022/07/26 01:20:10;;;;;;;19.90;6.70;;;;;;;18.93;63.10;99706.63;1760968;80;21028;-81
2022/07/26 01:22:38;;;;;;;17.62;6.72;;;;;;;18.82;65.05;99716.47;1760936;80;21529;-78
2022/07/26 01:25:06;;;;;;;19.40;6.28;;;;;;;18.68;66.16;99667.97;1761329;81;21004;-77
2022/07/26 01:27:37;;;;;;;10.43;6.03;;;;;;;18.57;67.16;99674.64;1760906;81;21957;-78
2022/07/26 01:30:03;;;;;;;16.20;5.85;;;;;;;18.50;68.83;99675.61;1761125;80;21048;-77
2022/07/26 01:32:30;;;;;;;9.85;5.53;;;;;;;18.41;68.73;99694.11;1761001;80;21000;-76
2022/07/26 01:34:57;;;;;;;10.60;5.75;;;;;;;18.16;68.62;99715.12;1761337;80;21020;-78
2022/07/26 01:37:24;;;;;;;10.05;6.25;;;;;;;17.94;69.38;99714.16;1760935;81;21023;-76
2022/07/26 01:39:51;;;;;;;9.53;6.92;;;;;;;17.87;70.36;99725.36;1761276;81;21896;-77
2022/07/26 01:42:18;;;;;;;9.73;7.50;;;;;;;17.81;71.08;99725.36;1760854;81;21040;-76
2022/07/26 01:44:45;;;;;;;15.50;8.05;;;;;;;17.74;71.81;99732.08;1761213;81;21099;-76
2022/07/26 01:47:13;;;;;;;12.45;7.95;;;;;;;17.70;72.28;99723.50;1760993;80;21434;-76
2022/07/26 01:49:40;;;;;;;12.93;8.25;;;;;;;17.70;73.19;99727.48;1757087;80;21088;-77
2022/07/26 01:52:07;;;;;;;13.83;8.63;;;;;;;17.74;74.04;99730.27;1744251;81;21093;-77
2022/07/26 01:54:34;;;;;;;13.78;9.88;;;;;;;17.80;74.74;99732.95;1761019;80;20988;-76
2022/07/26 01:57:01;;;;;;;14.25;9.68;;;;;;;17.96;76.05;99740.57;1761007;81;21051;-78
2022/07/26 01:59:28;;;;;;;14.25;10.08;;;;;;;17.96;76.05;99740.57;1761005;81;21517;-79
2022/07/26 02:01:55;;;;;;;13.75;9.73;;;;;;;18.03;76.49;99745.73;1761213;81;21035;-78
2022/07/26 02:07:08;;;;;;;15.28;9.73;;;;;;;18.08;76.40;99770.58;1726711;81;21507;-77
2022/07/26 02:09:35;;;;;;;12.20;9.53;;;;;;;18.05;76.81;99779.13;1741943;81;20996;-76
2022/07/26 02:12:03;;;;;;;14.18;9.98;;;;;;;18.09;76.92;99784.19;1752904;81;20921;-77
2022/07/26 02:14:30;;;;;;;13.90;10.90;;;;;;;18.09;77.36;99789.49;1752902;81;21020;-77
2022/07/26 02:16:58;;;;;;;15.13;11.78;;;;;;;18.16;77.98;99788.90;1752847;81;21310;-76
2022/07/26 02:19:27;;;;;;;14.03;11.57;;;;;;;18.21;77.80;99775.29;1738150;81;21029;-77
2022/07/26 02:21:55;;;;;;;13.75;12.37;;;;;;;18.22;78.14;99765.03;1747326;81;21072;-76
2022/07/26 02:24:22;;;;;;;16.90;13.55;;;;;;;18.27;78.14;99769.00;1752912;81;21510;-76
2022/07/26 02:26:49;;;;;;;16.42;14.73;;;;;;;18.35;78.37;99773.70;1753040;81;21020;-76
2022/07/26 02:29:16;;;;;;;19.42;13.98;;;;;;;18.43;78.76;99763.82;1742685;81;21121;-76
2022/07/26 02:31:44;;;;;;;16.32;14.15;;;;;;;18.49;78.83;99768.62;1742400;81;21033;-76
2022/07/26 02:34:11;;;;;;;17.10;15.28;;;;;;;18.55;78.51;99771.27;1752780;81;21044;-76
2022/07/26 02:36:38;;;;;;;15.90;14.20;;;;;;;18.60;78.96;99780.55;1752835;81;21465;-76
2022/07/26 02:39:05;;;;;;;16.35;14.65;;;;;;;18.68;78.86;99786.58;1752750;81;21103;-76
2022/07/26 02:41:32;;;;;;;16.70;15.10;;;;;;;18.74;79.07;99782.13;1752912;81;21125;-76
2022/07/26 02:43:59;;;;;;;20.17;15.05;;;;;;;18.80;79.10;99790.91;1752818;81;21653;-76
2022/07/26 02:46:26;;;;;;;18.57;14.50;;;;;;;18.85;79.11;99798.03;1752752;81;21051;-76
2022/07/26 02:48:53;;;;;;;15.60;14.10;;;;;;;18.89;79.19;99804.77;1752907;81;21083;-76
2022/07/26 02:51:21;;;;;;;16.12;14.07;;;;;;;18.96;79.51;99814.91;1752835;81;21269;-76
2022/07/26 02:53:48;;;;;;;15.40;13.83;;;;;;;19.01;79.39;99815.36;1752799;81;21139;-76
2022/07/26 02:56:15;;;;;;;15.25;13.83;;;;;;;19.07;79.87;99816.20;1752745;81;21567;-76
2022/07/26 02:58:42;;;;;;;15.98;14.30;;;;;;;19.12;80.07;99819.30;1753164;81;21005;-76
2022/07/26 03:01:09;;;;;;;17.23;14.40;;;;;;;19.17;80.18;99815.79;1732903;81;21105;-76
2022/07/26 03:03:36;;;;;;;17.12;14.38;;;;;;;19.23;80.41;99826.39;1758988;80;21561;-76
2022/07/26 03:06:03;;;;;;;16.30;14.30;;;;;;;19.30;80.63;99833.74;1766639;78;21303;-76
2022/07/26 03:08:31;;;;;;;14.98;13.58;;;;;;;19.35;80.94;99847.50;1763935;78;21053;-76
2022/07/26 03:10:59;;;;;;;15.48;13.88;;;;;;;19.43;81.08;99857.97;1763522;81;20994;-76
2022/07/26 03:13:27;;;;;;;13.25;11.95;;;;;;;19.48;81.14;99853.98;1763903;80;21450;-76
2022/07/26 03:15:54;;;;;;;13.28;11.85;;;;;;;19.53;81.11;99855.75;1763587;80;21056;-76
2022/07/26 03:18:21;;;;;;;13.90;12.30;;;;;;;19.58;80.97;99866.84;1763760;80;21875;-76
2022/07/26 03:20:49;;;;;;;13.55;12.25;;;;;;;19.64;80.93;99875.29;1763489;81;20989;-76
2022/07/26 03:23:16;;;;;;;14.13;11.90;;;;;;;19.69;81.09;99873.13;1763865;81;21493;-76
2022/07/26 03:25:43;;;;;;;12.55;11.40;;;;;;;19.72;81.19;99867.06;1763576;80;21080;-77
2022/07/26 03:28:10;;;;;;;10.23;9.18;;;;;;;19.76;81.25;99862.31;1763940;81;21084;-76
2022/07/26 03:30:37;;;;;;;9.88;8.33;;;;;;;19.78;80.79;99873.68;1763455;80;21100;-76
2022/07/26 03:33:04;;;;;;;8.93;7.97;;;;;;;19.79;80.77;99872.23;1763851;80;20990;-77
2022/07/26 03:35:32;;;;;;;8.70;7.80;;;;;;;19.81;80.43;99884.05;1763554;80;21021;-76
2022/07/26 03:37:59;;;;;;;9.63;7.95;;;;;;;19.82;80.53;99893.73;1763560;80;21101;-76
2022/07/26 03:40:27;;;;;;;9.35;7.85;;;;;;;19.87;80.50;99905.30;1763921;80;21064;-76
2022/07/26 03:42:55;;;;;;;8.85;7.83;;;;;;;19.89;80.26;99908.69;1763534;80;21114;-76
2022/07/26 03:45:22;;;;;;;9.50;7.30;;;;;;;19.91;80.11;99919.55;1763773;80;21049;-76
2022/07/26 03:47:49;;;;;;;6.65;6.05;;;;;;;19.93;79.90;99918.11;1763452;80;21040;-77
2022/07/26 03:50:16;;;;;;;6.50;5.80;;;;;;;19.93;79.45;99927.42;1748743;81;21049;-77
2022/07/26 03:52:43;;;;;;;5.78;5.00;;;;;;;19.91;79.07;99930.19;1763532;81;21024;-77
2022/07/26 03:57:56;;;;;;;5.10;4.50;;;;;;;19.91;78.43;99930.69;1763529;81;21073;-77
2022/07/26 04:00:24;;;;;;;6.58;5.10;;;;;;;19.91;78.11;99936.01;1763746;80;20902;-77
2022/07/26 04:02:51;;;;;;;5.58;4.95;;;;;;;19.91;78.04;99946.16;1763592;81;21241;-76
2022/07/26 04:05:18;;;;;;;8.98;4.62;;;;;;;19.92;77.97;99945.66;1763926;81;21041;-77
2022/07/26 04:07:46;;;;;;;5.70;5.10;;;;;;;19.92;77.82;99938.52;1779103;79;21904;-77
2022/07/26 04:10:14;;;;;;;5.67;4.90;;;;;;;19.91;77.77;99937.34;1769669;78;21562;-77
2022/07/26 04:12:41;;;;;;;6.83;4.90;;;;;;;19.92;77.73;99946.50;1759001;79;21549;-77
2022/07/26 04:15:09;;;;;;;5.90;5.20;;;;;;;19.92;77.43;99948.32;1770367;80;21437;-77
2022/07/26 04:17:41;;;;;;;6.83;5.35;;;;;;;19.91;77.35;99940.83;1766351;79;21564;-77
2022/07/26 04:20:10;;;;;;;7.87;5.58;;;;;;;19.91;77.30;99949.30;1749441;80;21550;-77
2022/07/26 04:22:39;;;;;;;7.75;5.08;;;;;;;19.91;77.09;99947.48;1763982;80;20900;-77
2022/07/26 04:25:08;;;;;;;6.85;5.20;;;;;;;19.93;77.12;99951.36;1772286;80;21663;-77
2022/07/26 04:27:37;;;;;;;7.03;4.83;;;;;;;19.91;76.99;99958.61;1753199;81;21051;-77
2022/07/26 04:30:09;;;;;;;5.85;4.42;;;;;;;19.91;76.80;99956.80;1752615;80;21045;-76
2022/07/26 04:32:36;;;;;;;7.37;4.35;;;;;;;19.89;76.35;99973.36;1742336;79;21167;-77
2022/07/26 04:35:05;;;;;;;6.70;4.25;;;;;;;19.87;76.18;99985.09;1761344;81;21016;-76
2022/07/26 04:37:42;;;;;;;6.80;5.03;;;;;;;19.85;76.03;99985.72;1772956;80;21055;-77
2022/07/26 04:40:11;;;;;;;5.85;4.62;;;;;;;19.83;76.04;99989.83;1763919;80;21029;-76
2022/07/26 04:42:39;;;;;;;5.17;4.25;;;;;;;19.83;75.96;99993.33;1771648;81;21516;-76
2022/07/26 04:45:09;;;;;;;4.55;4.08;;;;;;;19.84;76.03;99999.48;1752559;81;21065;-77
2022/07/26 04:47:37;;;;;;;5.53;4.33;;;;;;;19.85;75.89;99992.38;1752948;81;21580;-76
2022/07/26 04:50:05;;;;;;;5.90;4.58;;;;;;;19.87;76.02;99986.42;1742552;81;21505;-76
2022/07/26 04:52:32;;;;;;;8.15;4.15;;;;;;;19.88;75.87;99994.78;1752220;79;20995;-76
2022/07/26 04:55:00;;;;;;;6.65;4.53;;;;;;;19.90;75.88;100002.99;1772392;80;21046;-76
2022/07/26 04:57:27;;;;;;;5.95;4.17;;;;;;;19.92;75.65;100005.02;1756168;79;21050;-76
2022/07/26 04:59:54;;;;;;;5.28;4.33;;;;;;;19.92;75.59;100006.34;1746850;79;21472;-76
2022/07/26 05:02:21;;;;;;;5.85;4.85;;;;;;;19.95;75.68;100014.56;1763693;80;21067;-81
2022/07/26 05:04:48;;;;;;;4.95;4.45;;;;;;;19.96;75.44;100015.78;1759822;80;21073;-81
2022/07/26 05:07:15;;;;;;;5.80;4.10;;;;;;;19.96;75.46;100021.10;1762452;80;21150;-81
2022/07/26 05:09:42;;;;;;;8.05;4.65;;;;;;;19.99;75.44;100030.64;1763672;79;21048;-79
2022/07/26 05:12:09;;;;;;;6.17;4.60;;;;;;;20.00;75.47;100030.50;1762330;81;21585;-80
2022/07/26 05:14:36;;;;;;;6.03;4.83;;;;;;;20.02;75.24;100041.03;1763838;81;21106;-79
2022/07/26 05:17:04;;;;;;;6.37;4.40;;;;;;;20.02;75.28;100053.84;1763742;81;22136;-81
2022/07/26 05:19:31;;;;;;;5.80;4.45;;;;;;;20.05;75.15;100051.42;1763180;80;21090;-80
2022/07/26 05:21:59;;;;;;;5.65;4.30;;;;;;;20.04;74.91;100050.58;1762494;79;21395;-81
2022/07/26 05:24:26;;;;;;;4.72;4.30;;;;;;;20.04;74.78;100051.06;1762263;80;21106;-80
2022/07/26 05:26:53;;;;;;;4.83;4.00;;;;;;;20.04;74.73;100053.73;1762870;80;21058;-80
2022/07/26 05:29:20;;;;;;;4.22;3.60;;;;;;;20.04;74.63;100059.05;1761981;80;21110;-80
2022/07/26 05:31:49;;;;;;;5.20;4.00;;;;;;;20.04;74.37;100059.89;1762569;79;21054;-80
2022/07/26 05:34:16;;;;;;;5.40;3.35;;;;;;;20.05;74.25;100064.23;1762813;80;22220;-80
2022/07/26 05:36:43;;;;;;;5.47;3.90;;;;;;;20.06;73.98;100074.37;1763259;80;20982;-80
2022/07/26 05:39:11;;;;;;;4.80;3.65;;;;;;;20.05;73.94;100068.22;1764052;80;22064;-80
2022/07/26 05:41:38;;;;;;;5.05;3.58;;;;;;;20.07;73.95;100079.23;1763899;79;21082;-79
2022/07/26 05:44:05;;;;;;;6.12;3.87;;;;;;;20.09;73.87;100078.11;1766805;80;21081;-80
2022/07/26 05:46:33;;;;;;;4.42;3.92;;;;;;;20.11;73.74;100087.31;1774523;80;21133;-80
2022/07/26 05:49:00;;;;;;;5.50;4.40;;;;;;;20.12;73.59;100090.32;1751961;81;21059;-80
2022/07/26 05:51:29;;;;;;;7.03;4.17;;;;;;;20.12;73.41;100102.30;1753701;81;21630;-81
2022/07/26 05:53:57;;;;;;;5.50;3.62;;;;;;;20.12;73.21;100107.62;1741754;81;21078;-80
2022/07/26 05:56:25;;;;;;;5.78;3.95;;;;;;;20.12;73.25;100106.28;1748767;81;21071;-79
2022/07/26 05:58:53;;;;;;;5.70;4.12;;;;;;;20.15;73.40;100106.06;1757471;81;21497;-79
2022/07/26 06:01:20;;;;;;;7.28;4.20;;;;;;;20.17;73.32;100106.27;1728200;81;21059;-80
2022/07/26 06:03:47;;;;;;;7.12;3.90;;;;;;;20.17;73.05;100113.41;1752741;81;21137;-80
2022/07/26 06:06:14;;;;;;;5.72;3.92;;;;;;;20.16;72.88;100116.56;1752014;81;21619;-80
2022/07/26 06:08:43;;;;;;;4.62;4.08;;;;;;;20.15;72.85;100120.20;1735848;81;21231;-80
2022/07/26 06:11:10;;;;;;;5.97;4.03;;;;;;;20.16;73.00;100111.73;1760747;80;21125;-80
2022/07/26 06:13:38;;;;;;;5.45;3.77;;;;;;;20.18;72.89;100114.63;1784197;79;21777;-80
2022/07/26 06:16:06;;;;;;;3.85;3.40;;;;;;;20.17;72.84;100108.93;1757225;81;21051;-80
2022/07/26 06:18:33;;;;;;;6.10;3.83;;;;;;;20.18;72.66;100111.13;1754060;81;21047;-81
2022/07/26 06:21:02;;;;;;;5.22;3.75;;;;;;;20.17;72.54;100115.58;1765710;80;21038;-78
2022/07/26 06:23:30;;;;;;;4.97;3.77;;;;;;;20.18;72.54;100113.30;1761014;81;21115;-76
2022/07/26 06:25:57;;;;;;;6.17;4.10;;;;;;;20.19;72.66;100123.45;1756829;81;21066;-78
2022/07/26 06:28:24;;;;;;;4.83;3.58;;;;;;;20.21;72.70;100123.70;1758154;81;22321;-78
2022/07/26 06:30:51;;;;;;;4.80;3.70;;;;;;;20.24;72.55;100119.94;1740937;80;22429;-81
2022/07/26 06:33:19;;;;;;;5.70;3.27;;;;;;;20.27;72.48;100113.88;1774820;80;21066;-78
2022/07/26 06:35:46;;;;;;;5.50;3.20;;;;;;;20.30;72.31;100115.92;1755929;81;21289;-79
2022/07/26 06:38:13;;;;;;;4.75;3.20;;;;;;;20.30;72.01;100118.59;1759797;81;21381;-78
2022/07/26 06:40:40;;;;;;;7.35;3.10;;;;;;;20.31;71.80;100131.75;1764777;80;21054;-80
2022/07/26 06:43:07;;;;;;;6.90;3.42;;;;;;;20.34;71.71;100127.54;1754406;81;21666;-79
2022/07/26 06:45:34;;;;;;;5.28;3.37;;;;;;;20.38;71.62;100130.78;1761707;81;21579;-79
2022/07/26 06:48:01;;;;;;;4.37;3.10;;;;;;;20.42;71.33;100137.53;1760930;79;22432;-79
2022/07/26 06:50:28;;;;;;;6.33;3.00;;;;;;;20.45;71.24;100130.62;1762154;79;21002;-76
2022/07/26 06:52:55;;;;;;;5.53;3.22;;;;;;;20.49;71.17;100132.91;1781473;80;20958;-78
2022/07/26 06:55:23;;;;;;;5.90;3.25;;;;;;;20.54;71.14;100142.38;1758699;79;21031;-79
2022/07/26 06:57:50;;;;;;;6.25;3.40;;;;;;;20.57;71.01;100136.80;1786746;80;21023;-77
2022/07/26 07:00:18;;;;;;;4.75;2.60;;;;;;;20.60;71.01;100140.53;1753314;81;21928;-79
2022/07/26 07:02:45;;;;;;;6.80;3.37;;;;;;;20.64;70.79;100151.27;1787341;79;21061;-79
2022/07/26 07:05:12;;;;;;;3.55;2.92;;;;;;;20.67;70.57;100154.55;1777876;80;21055;-77
2022/07/26 07:07:39;;;;;;;6.33;3.60;;;;;;;20.70;70.43;100144.97;1758292;81;21095;-77
2022/07/26 07:10:07;;;;;;;8.75;3.40;;;;;;;20.76;70.55;100143.61;1751023;81;21052;-78
2022/07/26 07:12:34;;;;;;;6.22;3.17;;;;;;;20.86;70.30;100139.67;1755410;81;22097;-77
2022/07/26 07:15:01;;;;;;;4.95;2.67;;;;;;;20.88;69.77;100146.56;1761862;81;21059;-78
2022/07/26 07:17:28;;;;;;;5.67;2.70;;;;;;;20.94;69.80;100150.53;1762277;80;21524;-78
2022/07/26 07:19:55;;;;;;;6.00;2.95;;;;;;;20.99;69.40;100152.33;1753784;81;21047;-77
2022/07/26 07:22:22;;;;;;;4.55;2.65;;;;;;;21.04;69.48;100151.95;1754336;81;21065;-78
2022/07/26 07:24:49;;;;;;;5.70;3.02;;;;;;;21.10;69.26;100148.75;1756277;79;21934;-78
2022/07/26 07:27:16;;;;;;;3.45;2.85;;;;;;;21.17;69.11;100149.90;1755637;79;20963;-77
2022/07/26 07:29:44;;;;;;;6.00;3.00;;;;;;;21.21;68.86;100153.17;1754281;79;32665;-78
2022/07/26 07:32:11;;;;;;;5.20;2.90;;;;;;;21.26;68.99;100149.63;1753975;81;21123;-77
2022/07/26 07:34:39;;;;;;;6.00;4.12;;;;;;;21.34;69.20;100155.15;1755937;80;21038;-78
2022/07/26 07:37:06;;;;;;;6.53;3.42;;;;;;;21.41;68.88;100153.66;1740992;81;21122;-79
2022/07/26 07:39:32;;;;;;;6.83;3.45;;;;;;;21.45;68.83;100159.09;1756558;80;21554;-77
2022/07/26 07:41:59;;;;;;;6.85;3.15;;;;;;;21.51;68.53;100164.39;1757249;81;21074;-78
2022/07/26 07:44:27;;;;;;;7.45;2.72;;;;;;;21.53;68.27;100167.73;1753879;81;21572;-78
2022/07/26 07:46:54;;;;;;;7.90;3.17;;;;;;;21.59;67.85;100168.08;1757698;80;21063;-78
2022/07/26 07:49:21;;;;;;;5.30;3.00;;;;;;;21.59;67.37;100173.41;1755492;79;21138;-78
2022/07/26 07:51:48;;;;;;;7.53;2.75;;;;;;;21.63;67.44;100169.14;1754522;81;21356;-77
2022/07/26 07:54:15;;;;;;;5.03;3.02;;;;;;;21.67;67.39;100170.55;1755012;80;21459;-78
2022/07/26 07:56:42;;;;;;;5.90;2.77;;;;;;;21.72;67.21;100173.66;1752246;79;21056;-78
2022/07/26 07:59:10;;;;;;;4.90;2.40;;;;;;;21.77;67.07;100170.10;1753027;81;21050;-82
2022/07/26 08:01:36;;;;;;;3.72;2.47;;;;;;;21.82;66.66;100173.22;1756831;80;21110;-82
2022/07/26 08:04:04;;;;;;;5.67;2.45;;;;;;;21.85;66.16;100169.44;1754889;79;21047;-83
2022/07/26 08:06:31;;;;;;;5.62;2.50;;;;;;;;;;1756168;81;21040;-83
2022/07/26 08:08:57;;;;;;;6.15;2.47;;;;;;;21.97;65.88;100179.86;1751376;81;21059;-83
2022/07/26 08:11:25;;;;;;;3.87;2.20;;;;;;;22.05;65.74;100180.52;1750047;81;21036;-80
2022/07/26 08:13:52;;;;;;;5.28;2.20;;;;;;;22.13;65.32;100183.85;1749560;81;21124;-82
2022/07/26 08:16:19;;;;;;;4.45;1.80;;;;;;;22.14;64.51;100181.52;1749171;81;21035;-81
2022/07/26 08:18:46;;;;;;;6.00;2.30;;;;;;;22.13;64.13;100186.02;1748843;81;21539;-83
2022/07/26 08:21:13;;;;;;;5.70;2.12;;;;;;;22.19;64.26;100180.66;1749993;81;21644;-82
2022/07/26 08:23:40;;;;;;;6.33;1.95;;;;;;;22.27;64.11;100183.48;1749907;81;21056;-81
2022/07/26 08:26:07;;;;;;;4.03;2.00;;;;;;;22.35;64.10;100188.98;1751528;81;21250;-77
2022/07/26 08:28:34;;;;;;;3.27;1.77;;;;;;;22.43;63.58;100194.98;1750309;81;20990;-78
2022/07/26 08:31:02;;;;;;;4.70;2.02;;;;;;;22.48;63.00;100198.09;1751975;81;21092;-78
2022/07/26 08:33:29;;;;;;;3.17;2.02;;;;;;;22.52;62.70;100195.47;1779616;79;21056;-79
2022/07/26 08:35:56;;;;;;;5.75;2.30;;;;;;;22.55;62.48;100199.70;1781870;80;21032;-78
2022/07/26 08:38:23;;;;;;;5.83;2.15;;;;;;;22.59;62.41;100203.30;1781837;80;21146;-78
2022/07/26 08:40:50;;;;;;;6.47;2.20;;;;;;;22.63;62.32;100207.37;1780851;80;21036;-78
2022/07/26 08:43:17;;;;;;;4.50;2.15;;;;;;;22.67;62.21;100207.45;1777849;80;21031;-78
2022/07/26 08:45:46;;;;;;;3.35;1.82;;;;;;;22.73;61.90;100206.05;1768308;80;21556;-78
2022/07/26 08:48:13;;;;;;;6.77;2.60;;;;;;;22.77;61.49;100204.77;1768971;80;21476;-78
2022/07/26 08:50:40;;;;;;;6.30;2.27;;;;;;;22.83;61.44;100203.37;1768733;80;21014;-78
2022/07/26 08:53:10;;;;;;;5.95;2.35;;;;;;;22.86;60.99;100209.30;1768934;80;21090;-78
2022/07/26 08:55:37;;;;;;;4.30;2.15;;;;;;;22.83;60.76;100212.22;1768886;80;21623;-78
2022/07/26 08:58:04;;;;;;;4.45;2.00;;;;;;;22.86;60.63;100213.30;1769196;80;20988;-78
2022/07/26 09:00:32;;;;;;;5.17;2.17;;;;;;;22.85;60.14;100218.77;1769025;80;21062;-77
2022/07/26 09:03:01;;;;;;;4.58;2.65;;;;;;;22.84;60.12;100219.27;1769339;80;21909;-78
2022/07/26 09:05:35;;;;;;;3.87;2.27;;;;;;;22.88;59.95;100222.50;1768978;80;21042;-78
2022/07/26 09:08:26;;;;;;;4.00;2.10;;;;;;;22.89;59.61;100222.38;1769343;80;21488;-78
2022/07/26 09:10:53;;;;;;;5.90;2.30;;;;;;;22.92;59.52;100219.92;1729044;82;21012;-78
2022/07/26 09:13:22;;;;;;;5.87;2.20;;;;;;;22.92;59.30;100223.42;1730710;82;21091;-78
2022/07/26 09:16:10;;;;;;;6.10;2.77;;;;;;;22.96;59.21;100217.83;1715493;82;21517;-78
2022/07/26 09:18:37;;;;;;;5.72;2.47;;;;;;;22.98;59.09;100227.39;1760368;81;21047;-78
2022/07/26 09:21:05;;;;;;;6.00;2.30;;;;;;;23.01;59.03;100216.92;1748649;81;21056;-78
2022/07/26 09:23:40;;;;;;;6.20;2.80;;;;;;;23.02;58.85;100223.44;1775631;80;21031;-78
2022/07/26 09:26:07;;;;;;;4.62;2.10;;;;;;;23.04;58.92;100217.47;1764755;80;21067;-78
2022/07/26 09:28:34;;;;;;;4.85;2.35;;;;;;;23.07;58.73;100224.36;1752546;81;21488;-78
2022/07/26 09:31:04;;;;;;;7.37;2.20;;;;;;;23.08;58.61;100224.20;1764885;81;21035;-78
2022/07/26 09:33:50;;;;;;;5.20;2.10;;;;;;;23.10;58.33;100222.73;1765138;80;21040;-79
2022/07/26 09:36:18;;;;;;;4.75;2.45;;;;;;;23.12;58.26;100220.28;1757447;80;21576;-78
2022/07/26 09:38:52;;;;;;;4.60;2.10;;;;;;;23.14;57.99;100218.31;1760415;81;21688;-78
2022/07/26 09:41:26;;;;;;;7.17;2.37;;;;;;;23.19;58.00;100221.04;1764942;80;21124;-78
2022/07/26 09:44:00;;;;;;;4.28;2.15;;;;;;;23.20;57.74;100205.37;1765537;80;21052;-78
2022/07/26 09:46:29;;;;;;;6.15;2.17;;;;;;;23.25;57.65;100206.63;1761048;80;21090;-78
2022/07/26 09:48:59;;;;;;;5.70;2.30;;;;;;;23.32;56.87;100208.22;1762422;80;23060;-78
2022/07/26 09:51:47;;;;;;;4.08;1.77;;;;;;;23.32;56.87;100208.22;1763016;80;20987;-78
2022/07/26 09:54:31;;;;;;;6.97;2.10;;;;;;;23.34;57.08;100214.28;1747422;81;21108;-78
2022/07/26 09:56:58;;;;;;;6.08;2.12;;;;;;;23.41;56.94;100211.36;1764775;81;21024;-78
2022/07/26 09:59:27;;;;;;;6.00;2.05;;;;;;;23.46;56.76;100214.45;1765018;81;21510;-78
2022/07/26 10:01:57;;;;;;;5.85;2.33;;;;;;;23.55;56.78;100220.26;1743590;80;21635;-78
2022/07/26 10:04:25;;;;;;;7.75;2.08;;;;;;;23.64;56.29;100221.72;1762957;81;20996;-78
2022/07/26 10:06:53;;;;;;;5.35;2.15;;;;;;;23.71;56.23;100220.19;1764767;80;21136;-78
2022/07/26 10:09:24;;;;;;;4.40;2.22;;;;;;;23.76;55.86;100224.61;1765070;80;20981;-76
2022/07/26 10:12:07;;;;;;;3.75;2.10;;;;;;;23.68;55.42;100212.42;1769505;81;21039;-85
2022/07/26 10:14:50;;;;;;;6.35;1.98;;;;;;;23.66;55.60;100207.20;1764901;80;21070;-78
2022/07/26 10:17:36;;;;;;;2.87;1.75;;;;;;;23.72;55.35;100209.35;1756917;81;21047;-77
2022/07/26 10:20:07;;;;;;;3.55;2.20;;;;;;;23.77;55.05;100212.41;1769382;81;21097;-77
2022/07/26 10:22:45;;;;;;;5.87;2.62;;;;;;;23.80;54.79;100206.76;1767789;81;21054;-76
2022/07/26 10:25:23;;;;;;;3.35;1.95;;;;;;;23.80;54.43;100209.44;1767898;81;21002;-76
2022/07/26 10:27:59;;;;;;;4.22;1.90;;;;;;;23.77;54.32;100208.39;1767282;81;21050;-77
2022/07/26 10:30:28;;;;;;;4.47;2.10;;;;;;;23.81;54.22;100207.63;1765043;80;21303;-77
2022/07/26 10:33:00;;;;;;;3.47;1.98;;;;;;;23.82;54.08;100210.64;1748736;81;21090;-76
2022/07/26 10:35:39;;;;;;;5.70;2.12;;;;;;;23.84;53.80;100210.51;1758486;81;21385;-79
2022/07/26 10:38:14;;;;;;;3.95;2.27;;;;;;;23.80;53.68;100205.42;1745605;80;21445;-81
2022/07/26 10:41:06;;;;;;;4.50;2.05;;;;;;;23.82;53.96;100203.45;1753913;80;21461;-75
2022/07/26 10:43:34;;;;;;;6.28;2.65;;;;;;;23.89;53.83;100210.88;1757583;81;21064;-76
2022/07/26 10:46:18;;;;;;;4.47;2.17;;;;;;;23.94;53.51;100216.14;1748093;80;21615;-80
2022/07/26 10:49:06;;;;;;;7.85;2.58;;;;;;;24.00;53.31;100213.40;1741711;81;21073;-79
2022/07/26 10:51:40;;;;;;;5.90;2.70;;;;;;;24.12;53.35;100213.53;1736120;79;21074;-77
2022/07/26 10:54:10;;;;;;;7.08;2.85;;;;;;;24.21;53.18;100205.94;1740326;79;21529;-77
2022/07/26 10:56:37;;;;;;;6.95;2.42;;;;;;;24.32;53.14;100212.92;1765056;81;21236;-80
2022/07/26 10:59:05;;;;;;;5.22;2.50;;;;;;;24.34;52.67;100208.77;1749692;79;21939;-79
2022/07/26 11:01:42;;;;;;;4.20;2.12;;;;;;;24.28;52.57;100210.22;1764282;81;21043;-79
2022/07/26 11:04:22;;;;;;;4.78;2.87;;;;;;;24.16;52.06;100212.23;1749390;80;21072;-80
2022/07/26 11:06:49;;;;;;;5.33;2.58;;;;;;;24.01;51.94;100217.75;1755356;81;21051;-81
2022/07/26 11:09:19;;;;;;;5.70;2.90;;;;;;;23.89;51.86;100214.90;1737873;81;21648;-80
2022/07/26 11:11:47;;;;;;;4.75;2.37;;;;;;;23.79;51.90;100218.97;1742682;79;21223;-78
2022/07/26 11:14:16;;;;;;;3.52;2.27;;;;;;;23.68;51.82;100213.27;1737817;81;21044;-78
2022/07/26 11:16:47;;;;;;;3.77;2.10;;;;;;;23.58;51.79;100217.79;1763092;81;21000;-85
2022/07/26 11:19:22;;;;;;;2.58;2.12;;;;;;;23.49;51.76;100216.83;1764903;80;21525;-80
2022/07/26 11:21:58;;;;;;;7.78;2.27;;;;;;;23.47;52.04;100220.63;1745272;79;21052;-80
2022/07/26 11:24:26;;;;;;;3.62;2.35;;;;;;;23.47;52.01;100220.13;1737844;81;21129;-78
2022/07/26 11:26:53;;;;;;;6.17;2.15;;;;;;;23.49;52.14;100221.34;1742705;79;21616;-79
2022/07/26 11:29:33;;;;;;;5.70;3.15;;;;;;;23.54;52.10;100217.74;1749672;81;21040;-82
2022/07/26 11:32:00;;;;;;;;;;;;;;;23.59;52.20;100223.51;1767595;80;21055;-80
2022/07/26 11:34:34;;;;;;;6.00;2.40;;;;;;;23.66;51.97;100217.07;1753018;79;21415;-79
2022/07/26 11:37:05;;;;;;;4.45;2.33;;;;;;;23.71;52.15;100221.52;1761244;81;21120;-79
2022/07/26 11:39:35;;;;;;;7.25;2.77;;;;;;;23.78;52.23;100214.61;1764932;81;21000;-79